createdAt,value
2023-05-23T00:00:45.596Z,0
2023-05-23T00:01:45.710Z,0
2023-05-23T00:02:45.761Z,0
2023-05-23T00:03:45.835Z,0
2023-05-23T00:04:45.604Z,0
2023-05-23T00:05:45.613Z,0
2023-05-23T00:06:45.626Z,0
2023-05-23T00:07:45.602Z,0
2023-05-23T00:08:45.613Z,0
2023-05-23T00:09:45.613Z,0
2023-05-23T00:10:45.608Z,0
2023-05-23T00:11:45.859Z,0
2023-05-23T00:12:45.610Z,0
2023-05-23T00:13:45.617Z,0
2023-05-23T00:14:45.612Z,0
2023-05-23T00:15:45.608Z,0
2023-05-23T00:16:45.661Z,0
2023-05-23T00:17:45.634Z,0
2023-05-23T00:18:45.746Z,0
2023-05-23T00:19:45.655Z,0
2023-05-23T00:20:45.637Z,0
2023-05-23T00:21:45.615Z,0
2023-05-23T00:22:45.597Z,0
2023-05-23T00:23:45.620Z,0
2023-05-23T00:24:45.613Z,0
2023-05-23T00:25:45.612Z,0
2023-05-23T00:26:45.609Z,0
2023-05-23T00:27:45.612Z,0
2023-05-23T00:28:45.610Z,0
2023-05-23T00:29:45.616Z,0
2023-05-23T00:30:45.626Z,0
2023-05-23T00:31:45.615Z,0
2023-05-23T00:32:45.613Z,0
2023-05-23T00:33:45.614Z,0
2023-05-23T00:34:45.631Z,0
2023-05-23T00:35:45.614Z,0
2023-05-23T00:36:45.608Z,0
2023-05-23T00:37:45.607Z,0
2023-05-23T00:38:45.610Z,0
2023-05-23T00:39:45.615Z,0
2023-05-23T00:40:45.621Z,0
2023-05-23T00:41:45.611Z,0
2023-05-23T00:42:45.620Z,0
2023-05-23T00:43:45.622Z,0
2023-05-23T00:44:45.617Z,0
2023-05-23T00:45:45.612Z,0
2023-05-23T00:46:45.700Z,0
2023-05-23T00:47:45.626Z,0
2023-05-23T00:48:45.623Z,0
2023-05-23T00:49:45.608Z,0
2023-05-23T00:50:45.605Z,0
2023-05-23T00:51:45.634Z,0
2023-05-23T00:52:45.620Z,0
2023-05-23T00:53:45.612Z,0
2023-05-23T00:54:45.620Z,0
2023-05-23T00:55:45.602Z,0
2023-05-23T00:56:45.621Z,0
2023-05-23T00:57:45.615Z,0
2023-05-23T00:58:45.626Z,0
2023-05-23T00:59:45.597Z,0
2023-05-23T01:00:45.595Z,0
2023-05-23T01:01:45.695Z,0
2023-05-23T01:02:45.736Z,0
2023-05-23T01:03:45.763Z,0
2023-05-23T01:04:45.612Z,0
2023-05-23T01:05:45.610Z,0
2023-05-23T01:06:45.707Z,0
2023-05-23T01:07:45.599Z,0
2023-05-23T01:08:45.613Z,0
2023-05-23T01:09:45.592Z,0
2023-05-23T01:10:45.604Z,0
2023-05-23T01:11:45.618Z,0
2023-05-23T01:12:45.611Z,0
2023-05-23T01:13:45.615Z,0
2023-05-23T01:14:45.609Z,0
2023-05-23T01:15:45.626Z,0
2023-05-23T01:16:45.638Z,0
2023-05-23T01:17:45.633Z,0
2023-05-23T01:18:45.664Z,0
2023-05-23T01:19:45.610Z,0
2023-05-23T01:20:45.618Z,0
2023-05-23T01:21:45.606Z,0
2023-05-23T01:22:45.623Z,0
2023-05-23T01:23:45.610Z,0
2023-05-23T01:24:45.608Z,0
2023-05-23T01:25:45.603Z,0
2023-05-23T01:26:45.606Z,0
2023-05-23T01:27:45.613Z,0
2023-05-23T01:28:45.624Z,0
2023-05-23T01:29:45.609Z,0
2023-05-23T01:30:45.606Z,0
2023-05-23T01:31:45.636Z,0
2023-05-23T01:32:45.634Z,0
2023-05-23T01:33:45.605Z,0
2023-05-23T01:34:45.622Z,0
2023-05-23T01:35:45.605Z,0
2023-05-23T01:36:45.602Z,0
2023-05-23T01:37:45.594Z,0
2023-05-23T01:38:45.600Z,0
2023-05-23T01:39:45.620Z,0
2023-05-23T01:40:45.610Z,0
2023-05-23T01:41:45.612Z,0
2023-05-23T01:42:45.618Z,0
2023-05-23T01:43:45.614Z,0
2023-05-23T01:44:45.614Z,0
2023-05-23T01:45:45.626Z,0
2023-05-23T01:46:45.595Z,0
2023-05-23T01:47:45.668Z,0
2023-05-23T01:48:45.611Z,0
2023-05-23T01:49:45.608Z,0
2023-05-23T01:50:45.613Z,0
2023-05-23T01:51:45.608Z,0
2023-05-23T01:52:45.651Z,0
2023-05-23T01:53:45.609Z,0
2023-05-23T01:54:45.630Z,0
2023-05-23T01:55:45.603Z,0
2023-05-23T01:56:45.601Z,0
2023-05-23T01:57:45.620Z,0
2023-05-23T01:58:45.624Z,0
2023-05-23T01:59:45.607Z,0
2023-05-23T02:00:45.634Z,0
2023-05-23T02:01:45.707Z,0
2023-05-23T02:02:45.673Z,0
2023-05-23T02:03:45.624Z,0
2023-05-23T02:04:45.601Z,0
2023-05-23T02:05:45.610Z,0
2023-05-23T02:06:45.609Z,0
2023-05-23T02:07:45.624Z,0
2023-05-23T02:08:45.605Z,0
2023-05-23T02:09:45.611Z,0
2023-05-23T02:10:45.621Z,0
2023-05-23T02:11:45.616Z,0
2023-05-23T02:12:45.613Z,0
2023-05-23T02:13:45.646Z,0
2023-05-23T02:14:45.613Z,0
2023-05-23T02:15:45.594Z,0
2023-05-23T02:16:45.676Z,0
2023-05-23T02:17:45.666Z,0
2023-05-23T02:18:45.693Z,0
2023-05-23T02:19:45.609Z,0
2023-05-23T02:20:45.616Z,0
2023-05-23T02:21:45.620Z,0
2023-05-23T02:22:45.631Z,0
2023-05-23T02:23:45.614Z,0
2023-05-23T02:24:45.600Z,0
2023-05-23T02:25:45.606Z,0
2023-05-23T02:26:45.620Z,0
2023-05-23T02:27:45.609Z,0
2023-05-23T02:28:45.611Z,0
2023-05-23T02:29:45.614Z,0
2023-05-23T02:30:45.613Z,0
2023-05-23T02:31:45.654Z,0
2023-05-23T02:32:45.652Z,0
2023-05-23T02:33:45.619Z,0
2023-05-23T02:34:45.624Z,0
2023-05-23T02:35:45.621Z,0
2023-05-23T02:36:45.630Z,0
2023-05-23T02:37:45.622Z,0
2023-05-23T02:38:45.607Z,0
2023-05-23T02:39:45.604Z,0
2023-05-23T02:40:45.625Z,0
2023-05-23T02:41:45.613Z,0
2023-05-23T02:42:45.623Z,0
2023-05-23T02:43:46.820Z,0
2023-05-23T02:44:45.617Z,0
2023-05-23T02:45:45.625Z,0
2023-05-23T02:46:45.655Z,0
2023-05-23T02:47:45.635Z,0
2023-05-23T02:48:45.621Z,0
2023-05-23T02:49:45.613Z,0
2023-05-23T02:50:45.606Z,0
2023-05-23T02:51:45.614Z,0
2023-05-23T02:52:45.617Z,0
2023-05-23T02:53:45.617Z,0
2023-05-23T02:54:45.620Z,0
2023-05-23T02:55:45.624Z,0
2023-05-23T02:56:45.609Z,0
2023-05-23T02:57:45.615Z,0
2023-05-23T02:58:45.647Z,0
2023-05-23T02:59:45.616Z,0
2023-05-23T03:00:45.598Z,0
2023-05-23T03:01:45.680Z,0
2023-05-23T03:02:45.636Z,0
2023-05-23T03:03:45.771Z,0
2023-05-23T03:04:45.633Z,0
2023-05-23T03:05:45.691Z,0.01
2023-05-23T03:06:45.699Z,0.01
2023-05-23T03:07:45.638Z,0.01
2023-05-23T03:08:45.649Z,0.01
2023-05-23T03:09:45.687Z,0.01
2023-05-23T03:10:45.693Z,0.01
2023-05-23T03:11:45.699Z,0.01
2023-05-23T03:12:45.703Z,0.01
2023-05-23T03:13:45.708Z,0.01
2023-05-23T03:14:45.698Z,0.01
2023-05-23T03:15:45.692Z,0.01
2023-05-23T03:16:45.740Z,0.01
2023-05-23T03:17:45.742Z,0.01
2023-05-23T03:18:45.713Z,0.01
2023-05-23T03:19:45.687Z,0.02
2023-05-23T03:20:45.690Z,0.02
2023-05-23T03:21:45.694Z,0.02
2023-05-23T03:22:45.996Z,0.02
2023-05-23T03:23:45.700Z,0.03
2023-05-23T03:24:45.703Z,0.03
2023-05-23T03:25:45.695Z,0.03
2023-05-23T03:26:45.700Z,0.03
2023-05-23T03:27:45.698Z,0.03
2023-05-23T03:28:45.707Z,0.03
2023-05-23T03:29:45.689Z,0.03
2023-05-23T03:30:45.692Z,0.03
2023-05-23T03:31:45.716Z,0.03
2023-05-23T03:32:45.738Z,0.03
2023-05-23T03:33:45.700Z,0.03
2023-05-23T03:34:45.694Z,0.03
2023-05-23T03:35:45.689Z,0.03
2023-05-23T03:36:45.711Z,0.03
2023-05-23T03:37:45.700Z,0.03
2023-05-23T03:38:45.697Z,0.04
2023-05-23T03:39:45.694Z,0.04
2023-05-23T03:40:45.690Z,0.04
2023-05-23T03:41:45.707Z,0.04
2023-05-23T03:42:45.696Z,0.04
2023-05-23T03:43:45.704Z,0.04
2023-05-23T03:44:45.688Z,0.03
2023-05-23T03:45:45.874Z,0.03
2023-05-23T03:46:45.731Z,0.02
2023-05-23T03:47:45.700Z,0.02
2023-05-23T03:48:45.694Z,0.02
2023-05-23T03:49:45.698Z,0.02
2023-05-23T03:50:45.703Z,0.01
2023-05-23T03:51:45.717Z,0.01
2023-05-23T03:52:45.690Z,0.01
2023-05-23T03:53:45.697Z,0.01
2023-05-23T03:54:45.691Z,0.01
2023-05-23T03:55:45.701Z,0.01
2023-05-23T03:56:45.700Z,0.01
2023-05-23T03:57:45.708Z,0.01
2023-05-23T03:58:45.712Z,0.01
2023-05-23T03:59:45.692Z,0.01
2023-05-23T04:00:45.707Z,0.01
2023-05-23T04:01:45.692Z,0.02
2023-05-23T04:02:45.784Z,0.02
2023-05-23T04:03:45.747Z,0.02
2023-05-23T04:04:45.702Z,0.02
2023-05-23T04:05:45.696Z,0.02
2023-05-23T04:06:45.695Z,0.03
2023-05-23T04:07:45.716Z,0.03
2023-05-23T04:08:45.694Z,0.03
2023-05-23T04:09:45.695Z,0.04
2023-05-23T04:10:45.688Z,0.05
2023-05-23T04:11:45.683Z,0.06
2023-05-23T04:12:45.726Z,0.07
2023-05-23T04:13:45.713Z,0.08
2023-05-23T04:14:45.698Z,0.09
2023-05-23T04:15:45.723Z,0.11
2023-05-23T04:16:45.752Z,0.12
2023-05-23T04:17:45.725Z,0.13
2023-05-23T04:18:45.702Z,0.14
2023-05-23T04:19:45.687Z,0.15
2023-05-23T04:20:45.684Z,0.17
2023-05-23T04:21:45.626Z,0.18
2023-05-23T04:22:45.633Z,0.18
2023-05-23T04:23:45.620Z,0.19
2023-05-23T04:24:45.624Z,0.2
2023-05-23T04:25:45.607Z,0.21
2023-05-23T04:26:45.607Z,0.22
2023-05-23T04:27:45.610Z,0.22
2023-05-23T04:28:45.619Z,0.23
2023-05-23T04:29:45.612Z,0.23
2023-05-23T04:30:45.591Z,0.23
2023-05-23T04:31:45.648Z,0.23
2023-05-23T04:32:45.647Z,0.23
2023-05-23T04:33:45.617Z,0.23
2023-05-23T04:34:45.618Z,0.24
2023-05-23T04:35:45.601Z,0.25
2023-05-23T04:36:45.614Z,0.26
2023-05-23T04:37:45.647Z,0.28
2023-05-23T04:38:45.606Z,0.29
2023-05-23T04:39:45.603Z,0.31
2023-05-23T04:40:45.604Z,0.32
2023-05-23T04:41:45.615Z,0.34
2023-05-23T04:42:45.614Z,0.35
2023-05-23T04:43:45.622Z,0.37
2023-05-23T04:44:45.604Z,0.38
2023-05-23T04:45:45.614Z,0.4
2023-05-23T04:46:45.797Z,0.43
2023-05-23T04:47:45.628Z,0.45
2023-05-23T04:48:45.630Z,0.48
2023-05-23T04:49:45.614Z,0.49
2023-05-23T04:50:45.602Z,0.52
2023-05-23T04:51:45.614Z,0.54
2023-05-23T04:52:45.618Z,0.56
2023-05-23T04:53:45.610Z,0.59
2023-05-23T04:54:45.616Z,0.59
2023-05-23T04:55:45.612Z,0.6
2023-05-23T04:56:45.613Z,0.61
2023-05-23T04:57:45.620Z,0.62
2023-05-23T04:58:45.627Z,0.62
2023-05-23T04:59:45.611Z,0.63
2023-05-23T05:00:45.623Z,0.63
2023-05-23T05:01:45.610Z,0.63
2023-05-23T05:02:45.650Z,0.64
2023-05-23T05:03:45.660Z,0.64
2023-05-23T05:04:45.619Z,0.65
2023-05-23T05:05:45.632Z,0.65
2023-05-23T05:06:45.616Z,0.64
2023-05-23T05:07:45.613Z,0.63
2023-05-23T05:08:45.618Z,0.62
2023-05-23T05:09:45.612Z,0.61
2023-05-23T05:10:45.607Z,0.61
2023-05-23T05:11:45.602Z,0.59
2023-05-23T05:12:45.617Z,0.58
2023-05-23T05:13:45.629Z,0.57
2023-05-23T05:14:45.611Z,0.57
2023-05-23T05:15:45.610Z,0.57
2023-05-23T05:16:45.639Z,0.57
2023-05-23T05:17:46.466Z,0.58
2023-05-23T05:18:45.595Z,0.6
2023-05-23T05:19:45.610Z,0.61
2023-05-23T05:20:45.617Z,0.63
2023-05-23T05:21:45.598Z,0.65
2023-05-23T05:22:45.605Z,0.68
2023-05-23T05:23:45.609Z,0.69
2023-05-23T05:24:45.624Z,0.73
2023-05-23T05:25:45.608Z,0.75
2023-05-23T05:26:45.603Z,0.77
2023-05-23T05:27:45.610Z,0.8
2023-05-23T05:28:45.614Z,0.83
2023-05-23T05:29:45.621Z,0.85
2023-05-23T05:30:45.635Z,0.88
2023-05-23T05:31:45.606Z,0.9
2023-05-23T05:32:45.662Z,0.92
2023-05-23T05:33:45.612Z,0.94
2023-05-23T05:34:48.521Z,0.96
2023-05-23T05:35:45.596Z,0.98
2023-05-23T05:36:45.618Z,1
2023-05-23T05:37:45.613Z,1.02
2023-05-23T05:38:45.632Z,1.05
2023-05-23T05:39:45.601Z,1.06
2023-05-23T05:40:45.595Z,1.08
2023-05-23T05:41:45.601Z,1.08
2023-05-23T05:42:45.616Z,1.08
2023-05-23T05:43:45.626Z,1.08
2023-05-23T05:44:45.610Z,1.07
2023-05-23T05:45:45.603Z,1.07
2023-05-23T05:46:45.673Z,1.07
2023-05-23T05:47:45.640Z,1.07
2023-05-23T05:48:45.616Z,1.07
2023-05-23T05:49:45.613Z,1.07
2023-05-23T05:50:45.719Z,1.09
2023-05-23T05:51:45.616Z,1.09
2023-05-23T05:52:45.615Z,1.1
2023-05-23T05:53:45.612Z,1.08
2023-05-23T05:54:45.609Z,1.13
2023-05-23T05:55:45.615Z,1.16
2023-05-23T05:56:45.610Z,1.21
2023-05-23T05:57:45.624Z,1.24
2023-05-23T05:58:45.629Z,1.24
2023-05-23T05:59:45.611Z,1.34
2023-05-23T06:00:45.602Z,1.41
2023-05-23T06:01:45.624Z,1.46
2023-05-23T06:02:45.667Z,1.53
2023-05-23T06:03:45.937Z,1.59
2023-05-23T06:04:45.633Z,1.64
2023-05-23T06:05:45.617Z,1.68
2023-05-23T06:06:45.612Z,1.72
2023-05-23T06:07:45.606Z,1.75
2023-05-23T06:08:45.613Z,1.78
2023-05-23T06:09:45.609Z,1.82
2023-05-23T06:10:45.605Z,1.85
2023-05-23T06:11:45.615Z,1.84
2023-05-23T06:12:45.669Z,1.9
2023-05-23T06:13:45.631Z,1.88
2023-05-23T06:14:45.613Z,1.9
2023-05-23T06:15:45.620Z,1.9
2023-05-23T06:16:45.692Z,1.9
2023-05-23T06:17:45.631Z,1.92
2023-05-23T06:18:45.625Z,1.89
2023-05-23T06:19:45.609Z,1.85
2023-05-23T06:20:45.635Z,1.78
2023-05-23T06:21:45.611Z,1.74
2023-05-23T06:22:45.614Z,1.73
2023-05-23T06:23:45.612Z,1.71
2023-05-23T06:24:45.610Z,1.72
2023-05-23T06:25:45.618Z,1.8
2023-05-23T06:26:45.609Z,1.78
2023-05-23T06:27:45.619Z,1.72
2023-05-23T06:28:45.637Z,1.66
2023-05-23T06:29:45.617Z,1.57
2023-05-23T06:30:45.605Z,1.43
2023-05-23T06:31:45.704Z,1.37
2023-05-23T06:32:45.644Z,1.31
2023-05-23T06:33:45.621Z,1.28
2023-05-23T06:34:45.617Z,1.28
2023-05-23T06:35:45.617Z,1.31
2023-05-23T06:36:45.620Z,1.34
2023-05-23T06:37:45.700Z,1.38
2023-05-23T06:38:45.615Z,1.43
2023-05-23T06:39:45.622Z,1.46
2023-05-23T06:40:45.613Z,1.51
2023-05-23T06:41:45.619Z,1.59
2023-05-23T06:42:45.610Z,1.76
2023-05-23T06:43:45.618Z,1.87
2023-05-23T06:44:45.617Z,1.96
2023-05-23T06:45:45.632Z,1.9
2023-05-23T06:46:45.619Z,1.94
2023-05-23T06:47:45.786Z,2
2023-05-23T06:48:45.607Z,2.06
2023-05-23T06:49:45.597Z,2.07
2023-05-23T06:50:45.607Z,2.18
2023-05-23T06:51:45.777Z,2.31
2023-05-23T06:52:45.600Z,2.35
2023-05-23T06:53:45.611Z,2.34
2023-05-23T06:54:45.612Z,2.41
2023-05-23T06:55:45.609Z,2.35
2023-05-23T06:56:45.604Z,2.31
2023-05-23T06:57:45.620Z,2.22
2023-05-23T06:58:47.092Z,2.17
2023-05-23T06:59:45.606Z,2.11
2023-05-23T07:00:45.603Z,2.1
2023-05-23T07:01:45.640Z,2.1
2023-05-23T07:02:45.702Z,1.99
2023-05-23T07:03:45.617Z,1.98
2023-05-23T07:04:45.601Z,1.96
2023-05-23T07:05:45.617Z,1.89
2023-05-23T07:06:45.602Z,1.72
2023-05-23T07:07:45.613Z,1.54
2023-05-23T07:08:45.601Z,1.37
2023-05-23T07:09:45.609Z,1.22
2023-05-23T07:10:45.615Z,1.1
2023-05-23T07:11:45.619Z,1.02
2023-05-23T07:12:45.607Z,0.95
2023-05-23T07:13:45.624Z,0.88
2023-05-23T07:14:45.608Z,0.83
2023-05-23T07:15:45.604Z,0.8
2023-05-23T07:16:45.698Z,0.77
2023-05-23T07:17:45.649Z,0.74
2023-05-23T07:18:45.603Z,0.71
2023-05-23T07:19:45.614Z,0.7
2023-05-23T07:20:45.631Z,0.7
2023-05-23T07:21:45.623Z,0.7
2023-05-23T07:22:45.627Z,0.72
2023-05-23T07:23:45.611Z,0.74
2023-05-23T07:24:45.608Z,0.77
2023-05-23T07:26:00.566Z,0.77
2023-05-23T07:26:45.628Z,0.77
2023-05-23T07:27:45.635Z,0.78
2023-05-23T07:28:45.628Z,0.77
2023-05-23T07:29:45.594Z,0.78
2023-05-23T07:30:45.617Z,0.79
2023-05-23T07:31:45.648Z,0.82
2023-05-23T07:32:45.649Z,0.82
2023-05-23T07:33:45.592Z,0.82
2023-05-23T07:34:45.603Z,0.84
2023-05-23T07:35:45.625Z,0.83
2023-05-23T07:36:45.616Z,0.78
2023-05-23T07:37:45.609Z,0.8
2023-05-23T07:38:45.590Z,0.84
2023-05-23T07:39:45.602Z,0.9
2023-05-23T07:40:52.704Z,0.88
2023-05-23T07:41:45.612Z,0.89
2023-05-23T07:42:45.612Z,0.84
2023-05-23T07:43:45.621Z,0.8
2023-05-23T07:44:45.622Z,0.73
2023-05-23T07:45:45.617Z,0.74
2023-05-23T07:46:45.676Z,0.73
2023-05-23T07:47:45.644Z,0.8
2023-05-23T07:48:45.622Z,0.91
2023-05-23T07:49:45.604Z,0.95
2023-05-23T07:50:45.634Z,1.01
2023-05-23T07:51:45.610Z,1.06
2023-05-23T07:52:45.618Z,1.15
2023-05-23T07:53:45.609Z,1.12
2023-05-23T07:54:45.628Z,1.05
2023-05-23T07:55:45.613Z,1
2023-05-23T07:56:45.624Z,0.96
2023-05-23T07:57:45.607Z,0.96
2023-05-23T07:58:45.630Z,0.92
2023-05-23T07:59:45.618Z,0.86
2023-05-23T08:00:45.687Z,0.83
2023-05-23T08:01:45.636Z,0.83
2023-05-23T08:02:45.646Z,0.79
2023-05-23T08:03:45.621Z,0.69
2023-05-23T08:04:45.678Z,0.65
2023-05-23T08:05:45.602Z,0.72
2023-05-23T08:06:56.331Z,0.7
2023-05-23T08:07:45.605Z,0.79
2023-05-23T08:08:45.617Z,0.79
2023-05-23T08:09:45.624Z,0.73
2023-05-23T08:10:45.632Z,0.8
2023-05-23T08:11:45.616Z,0.79
2023-05-23T08:12:45.623Z,0.76
2023-05-23T08:13:45.629Z,0.69
2023-05-23T08:14:51.647Z,0.67
2023-05-23T08:15:45.610Z,0.6
2023-05-23T08:16:45.707Z,0.54
2023-05-23T08:17:45.650Z,0.55
2023-05-23T08:18:45.621Z,0.57
2023-05-23T08:19:45.600Z,0.6
2023-05-23T08:20:45.614Z,0.6
2023-05-23T08:21:45.609Z,0.56
2023-05-23T08:22:45.620Z,0.5
2023-05-23T08:23:45.619Z,0.54
2023-05-23T08:24:45.610Z,0.54
2023-05-23T08:25:45.618Z,0.55
2023-05-23T08:26:45.613Z,0.68
2023-05-23T08:27:45.621Z,0.86
2023-05-23T08:28:45.623Z,1.07
2023-05-23T08:29:45.618Z,1.19
2023-05-23T08:30:45.607Z,1.31
2023-05-23T08:31:45.639Z,1.49
2023-05-23T08:32:45.653Z,1.8
2023-05-23T08:33:45.614Z,2.01
2023-05-23T08:34:45.619Z,2.01
2023-05-23T08:35:45.632Z,2.08
2023-05-23T08:36:45.624Z,2.2
2023-05-23T08:37:45.619Z,2.4
2023-05-23T08:38:45.616Z,2.7
2023-05-23T08:39:45.617Z,2.85
2023-05-23T08:40:45.639Z,2.85
2023-05-23T08:41:45.639Z,2.88
2023-05-23T08:42:45.638Z,3.06
2023-05-23T08:43:45.631Z,3.31
2023-05-23T08:44:45.636Z,3.72
2023-05-23T08:45:45.628Z,3.59
2023-05-23T08:46:45.654Z,3.25
2023-05-23T08:47:45.698Z,2.92
2023-05-23T08:48:45.619Z,2.76
2023-05-23T08:49:45.628Z,2.52
2023-05-23T08:50:45.615Z,2.4
2023-05-23T08:51:45.623Z,2.29
2023-05-23T08:52:45.604Z,2.09
2023-05-23T08:53:45.612Z,1.84
2023-05-23T08:54:45.614Z,1.73
2023-05-23T08:55:45.621Z,1.72
2023-05-23T08:56:45.617Z,1.61
2023-05-23T08:57:45.636Z,1.54
2023-05-23T08:58:45.641Z,1.53
2023-05-23T08:59:45.623Z,1.58
2023-05-23T09:00:45.620Z,1.74
2023-05-23T09:01:45.646Z,1.74
2023-05-23T09:02:45.689Z,2.19
2023-05-23T09:03:45.612Z,2.1
2023-05-23T09:04:45.621Z,2.05
2023-05-23T09:05:45.621Z,2.04
2023-05-23T09:06:45.609Z,2.02
2023-05-23T09:07:45.611Z,2.07
2023-05-23T09:08:45.602Z,2.03
2023-05-23T09:09:45.636Z,1.84
2023-05-23T09:10:45.620Z,1.74
2023-05-23T09:11:45.612Z,1.58
2023-05-23T09:12:45.617Z,1.5
2023-05-23T09:13:45.614Z,1.44
2023-05-23T09:14:45.635Z,1.44
2023-05-23T09:15:45.616Z,1.46
2023-05-23T09:16:45.612Z,1.45
2023-05-23T09:17:45.835Z,1.55
2023-05-23T09:18:45.652Z,1.74
2023-05-23T09:19:45.620Z,1.89
2023-05-23T09:20:45.604Z,1.89
2023-05-23T09:21:45.606Z,1.92
2023-05-23T09:22:50.942Z,2.09
2023-05-23T09:23:49.829Z,2.42
2023-05-23T09:24:49.826Z,2.63
2023-05-23T09:25:49.811Z,2.74
2023-05-23T09:26:49.799Z,2.74
2023-05-23T09:27:49.818Z,2.31
2023-05-23T09:28:49.813Z,1.88
2023-05-23T09:29:49.797Z,1.69
2023-05-23T09:30:49.808Z,1.52
2023-05-23T09:31:50.074Z,1.37
2023-05-23T09:32:49.834Z,1.2
2023-05-23T09:33:49.803Z,1.19
2023-05-23T09:34:49.790Z,1.34
2023-05-23T09:35:49.799Z,1.83
2023-05-23T09:36:49.804Z,2.36
2023-05-23T09:37:49.806Z,2.61
2023-05-23T09:38:49.817Z,2.66
2023-05-23T09:39:49.885Z,2.57
2023-05-23T09:40:49.794Z,2.2
2023-05-23T09:41:49.827Z,2.09
2023-05-23T09:42:49.809Z,2.03
2023-05-23T09:43:49.815Z,2.11
2023-05-23T09:44:49.793Z,2.33
2023-05-23T09:45:49.796Z,2.67
2023-05-23T09:46:49.830Z,2.77
2023-05-23T09:47:49.824Z,3.08
2023-05-23T09:48:49.800Z,3.26
2023-05-23T09:49:49.802Z,2.89
2023-05-23T09:50:49.797Z,2.66
2023-05-23T09:51:49.837Z,2.52
2023-05-23T09:52:49.792Z,2.14
2023-05-23T09:53:49.796Z,1.79
2023-05-23T09:54:49.782Z,1.61
2023-05-23T09:55:49.817Z,1.53
2023-05-23T09:56:49.901Z,1.57
2023-05-23T09:57:49.816Z,1.71
2023-05-23T09:58:49.802Z,1.96
2023-05-23T09:59:49.788Z,2.07
2023-05-23T10:00:49.829Z,2.18
2023-05-23T10:01:49.792Z,2.18
2023-05-23T10:02:49.837Z,2.94
2023-05-23T10:03:49.837Z,2.7
2023-05-23T10:04:49.877Z,2.41
2023-05-23T10:05:49.802Z,1.91
2023-05-23T10:06:49.794Z,2.32
2023-05-23T10:07:49.788Z,3.35
2023-05-23T10:08:49.793Z,2.53
2023-05-23T10:09:49.801Z,2.65
2023-05-23T10:10:49.796Z,2.74
2023-05-23T10:11:49.793Z,2.11
2023-05-23T10:12:49.793Z,1.7
2023-05-23T10:13:49.826Z,1.71
2023-05-23T10:14:49.800Z,1.9
2023-05-23T10:15:49.813Z,1.87
2023-05-23T10:16:49.862Z,1.85
2023-05-23T10:17:49.807Z,1.7
2023-05-23T10:18:49.890Z,1.56
2023-05-23T10:19:49.818Z,1.29
2023-05-23T10:20:49.789Z,1.23
2023-05-23T10:21:49.816Z,1.26
2023-05-23T10:22:49.786Z,1.32
2023-05-23T10:23:49.793Z,1.5
2023-05-23T10:24:49.777Z,1.75
2023-05-23T10:25:49.796Z,1.82
2023-05-23T10:26:49.791Z,1.8
2023-05-23T10:27:50.577Z,1.88
2023-05-23T10:28:49.833Z,2.18
2023-05-23T10:29:49.783Z,3.09
2023-05-23T10:30:49.812Z,4.21
2023-05-23T10:31:49.791Z,4.82
2023-05-23T10:32:49.829Z,5.78
2023-05-23T10:33:49.798Z,4.9
2023-05-23T10:34:49.803Z,4.63
2023-05-23T10:35:49.829Z,4.45
2023-05-23T10:36:49.791Z,4.45
2023-05-23T10:37:49.814Z,5.5
2023-05-23T10:38:51.396Z,6.85
2023-05-23T10:39:49.784Z,10.41
2023-05-23T10:40:49.778Z,5.19
2023-05-23T10:41:49.790Z,3.61
2023-05-23T10:42:49.787Z,3.44
2023-05-23T10:43:49.812Z,3.64
2023-05-23T10:44:49.815Z,3.15
2023-05-23T10:45:49.846Z,2.71
2023-05-23T10:46:49.851Z,2.59
2023-05-23T10:47:49.852Z,2.83
2023-05-23T10:48:49.772Z,3.33
2023-05-23T10:49:49.796Z,5.12
2023-05-23T10:50:49.787Z,4.51
2023-05-23T10:51:51.210Z,4.55
2023-05-23T10:52:49.779Z,11.44
2023-05-23T10:53:49.778Z,11.37
2023-05-23T10:54:49.778Z,11.47
2023-05-23T10:55:49.782Z,10.9
2023-05-23T10:56:49.791Z,9.76
2023-05-23T10:57:51.070Z,8.37
2023-05-23T10:58:49.806Z,6.37
2023-05-23T10:59:49.807Z,9.93
2023-05-23T11:00:49.776Z,5.63
2023-05-23T11:01:49.815Z,5.63
2023-05-23T11:02:49.864Z,2.62
2023-05-23T11:03:52.885Z,2.4
2023-05-23T11:04:49.814Z,2.56
2023-05-23T11:05:49.777Z,3.01
2023-05-23T11:06:49.777Z,2.58
2023-05-23T11:07:49.783Z,2.45
2023-05-23T11:08:49.777Z,2.43
2023-05-23T11:09:49.780Z,2.47
2023-05-23T11:10:49.784Z,2.59
2023-05-23T11:11:49.783Z,2.74
2023-05-23T11:12:49.780Z,3.11
2023-05-23T11:13:49.807Z,3.2
2023-05-23T11:14:49.775Z,3.51
2023-05-23T11:15:49.790Z,4.01
2023-05-23T11:16:49.942Z,4.42
2023-05-23T11:17:49.799Z,5.44
2023-05-23T11:18:49.798Z,6.91
2023-05-23T11:19:49.802Z,5.4
2023-05-23T11:20:49.791Z,3.94
2023-05-23T11:21:49.792Z,3.03
2023-05-23T11:22:49.786Z,2.6
2023-05-23T11:23:49.777Z,2.02
2023-05-23T11:24:49.796Z,1.63
2023-05-23T11:25:49.788Z,1.39
2023-05-23T11:26:49.786Z,1.3
2023-05-23T11:27:49.783Z,1.34
2023-05-23T11:28:49.788Z,1.38
2023-05-23T11:29:49.790Z,1.45
2023-05-23T11:30:49.798Z,1.55
2023-05-23T11:31:49.834Z,1.72
2023-05-23T11:32:49.833Z,1.83
2023-05-23T11:33:49.789Z,2
2023-05-23T11:34:49.784Z,2.26
2023-05-23T11:35:49.783Z,2.6
2023-05-23T11:36:49.776Z,2.55
2023-05-23T11:37:49.785Z,2.67
2023-05-23T11:38:49.796Z,2.66
2023-05-23T11:39:49.783Z,2.54
2023-05-23T11:40:49.784Z,2.51
2023-05-23T11:41:49.798Z,2.48
2023-05-23T11:42:49.798Z,2.45
2023-05-23T11:43:49.829Z,2.39
2023-05-23T11:44:49.784Z,2.33
2023-05-23T11:45:49.826Z,2.34
2023-05-23T11:46:49.781Z,2.29
2023-05-23T11:47:49.816Z,2.3
2023-05-23T11:48:49.800Z,2.28
2023-05-23T11:49:49.795Z,2.34
2023-05-23T11:50:49.796Z,2.23
2023-05-23T11:51:49.801Z,2.17
2023-05-23T11:52:49.801Z,2.2
2023-05-23T11:53:49.785Z,2.18
2023-05-23T11:54:49.782Z,2.2
2023-05-23T11:55:49.786Z,2.34
2023-05-23T11:56:49.788Z,2.57
2023-05-23T11:57:49.870Z,2.87
2023-05-23T11:58:49.804Z,2.85
2023-05-23T11:59:49.781Z,2.9
2023-05-23T12:00:49.787Z,2.78
2023-05-23T12:01:49.807Z,2.78
2023-05-23T12:02:49.975Z,2.52
2023-05-23T12:03:50.022Z,2.75
2023-05-23T12:04:49.824Z,3.19
2023-05-23T12:05:49.791Z,3.81
2023-05-23T12:06:49.821Z,3.28
2023-05-23T12:07:49.864Z,2.63
2023-05-23T12:08:49.788Z,2.37
2023-05-23T12:09:49.786Z,1.98
2023-05-23T12:10:49.789Z,2.01
2023-05-23T12:11:49.826Z,2.24
2023-05-23T12:12:49.795Z,2.53
2023-05-23T12:13:50.559Z,2.45
2023-05-23T12:14:49.781Z,2.4
2023-05-23T12:15:50.490Z,2.4
2023-05-23T12:16:49.813Z,2.07
2023-05-23T12:17:49.793Z,1.88
2023-05-23T12:18:49.843Z,2.32
2023-05-23T12:19:49.779Z,2.94
2023-05-23T12:20:49.788Z,3.03
2023-05-23T12:21:49.787Z,2.87
2023-05-23T12:22:49.770Z,2.7
2023-05-23T12:23:49.786Z,2.52
2023-05-23T12:24:49.808Z,2.38
2023-05-23T12:25:49.784Z,2.58
2023-05-23T12:26:49.779Z,5.58
2023-05-23T12:27:49.779Z,2.74
2023-05-23T12:28:49.792Z,2.3
2023-05-23T12:29:49.792Z,2.13
2023-05-23T12:30:49.814Z,2.11
2023-05-23T12:31:49.835Z,2.38
2023-05-23T12:32:49.827Z,2.96
2023-05-23T12:33:50.203Z,5.76
2023-05-23T12:34:49.786Z,9.09
2023-05-23T12:35:49.785Z,9.36
2023-05-23T12:36:53.329Z,8.69
2023-05-23T12:37:49.814Z,4.08
2023-05-23T12:38:49.780Z,6.81
2023-05-23T12:39:49.796Z,8.33
2023-05-23T12:40:49.792Z,4.06
2023-05-23T12:41:49.791Z,5.2
2023-05-23T12:42:49.805Z,2.95
2023-05-23T12:43:49.802Z,2.47
2023-05-23T12:44:49.786Z,2.25
2023-05-23T12:45:49.785Z,2.3
2023-05-23T12:46:49.811Z,2.77
2023-05-23T12:47:51.419Z,3.63
2023-05-23T12:48:49.796Z,3.57
2023-05-23T12:49:49.801Z,3.82
2023-05-23T12:50:49.773Z,3.22
2023-05-23T12:51:49.791Z,2.72
2023-05-23T12:52:49.799Z,2.39
2023-05-23T12:53:49.810Z,2.28
2023-05-23T12:54:49.785Z,2.23
2023-05-23T12:55:49.788Z,2.26
2023-05-23T12:56:49.795Z,2.71
2023-05-23T12:57:49.796Z,2.92
2023-05-23T12:58:49.839Z,7.65
2023-05-23T12:59:49.781Z,3.13
2023-05-23T13:00:49.822Z,6.11
2023-05-23T13:01:49.784Z,6.11
2023-05-23T13:02:49.853Z,3.5
2023-05-23T13:03:49.811Z,3.58
2023-05-23T13:04:49.787Z,4.46
2023-05-23T13:05:49.785Z,4.03
2023-05-23T13:06:49.801Z,2.73
2023-05-23T13:07:49.794Z,6.19
2023-05-23T13:08:49.785Z,3.16
2023-05-23T13:09:49.791Z,2.84
2023-05-23T13:10:49.782Z,2.29
2023-05-23T13:11:49.800Z,1.78
2023-05-23T13:12:49.792Z,1.53
2023-05-23T13:13:49.979Z,1.4
2023-05-23T13:14:49.798Z,1.42
2023-05-23T13:15:51.077Z,1.45
2023-05-23T13:16:49.933Z,1.5
2023-05-23T13:17:50.368Z,1.53
2023-05-23T13:18:49.804Z,1.71
2023-05-23T13:19:49.785Z,1.81
2023-05-23T13:20:49.774Z,1.79
2023-05-23T13:21:50.166Z,1.67
2023-05-23T13:22:49.775Z,1.52
2023-05-23T13:23:49.825Z,1.3
2023-05-23T13:24:49.790Z,1.11
2023-05-23T13:25:49.796Z,0.96
2023-05-23T13:26:49.814Z,0.85
2023-05-23T13:27:49.801Z,0.79
2023-05-23T13:28:49.782Z,0.79
2023-05-23T13:29:49.783Z,0.75
2023-05-23T13:30:49.961Z,0.76
2023-05-23T13:31:49.840Z,0.81
2023-05-23T13:32:51.648Z,0.92
2023-05-23T13:33:49.789Z,1.04
2023-05-23T13:34:49.788Z,1.13
2023-05-23T13:35:49.776Z,1.21
2023-05-23T13:36:49.788Z,1.26
2023-05-23T13:37:49.797Z,1.28
2023-05-23T13:38:49.781Z,1.22
2023-05-23T13:39:49.792Z,1.27